createdAt,value
2022-09-17T00:01:25.072Z,4.20
2022-09-17T00:03:55.799Z,5.97
2022-09-17T00:06:24.857Z,5.22
2022-09-17T00:08:53.827Z,4.60
2022-09-17T00:11:23.965Z,5.63
2022-09-17T00:13:52.676Z,6.43
2022-09-17T00:16:31.429Z,4.78
2022-09-17T00:19:00.115Z,5.13
2022-09-17T00:21:27.717Z,3.95
2022-09-17T00:23:56.979Z,4.63
2022-09-17T00:26:24.600Z,5.68
2022-09-17T00:28:55.600Z,6.78
2022-09-17T00:31:23.628Z,4.72
2022-09-17T00:33:51.629Z,6.72
2022-09-17T00:36:20.639Z,5.55
2022-09-17T00:38:56.305Z,6.45
2022-09-17T00:41:25.543Z,4.40
2022-09-17T00:43:55.307Z,5.00
2022-09-17T00:46:31.680Z,3.72
2022-09-17T00:49:04.548Z,6.30
2022-09-17T00:51:37.371Z,5.88
2022-09-17T00:54:07.194Z,3.35
2022-09-17T00:56:38.415Z,5.53
2022-09-17T00:59:05.965Z,4.95
2022-09-17T01:01:33.613Z,4.18
2022-09-17T01:04:00.457Z,5.95
2022-09-17T01:06:33.605Z,3.22
2022-09-17T01:09:13.775Z,6.10
2022-09-17T01:11:54.023Z,5.95
2022-09-17T01:15:17.721Z,5.75
2022-09-17T01:17:59.205Z,3.25
2022-09-17T01:21:08.112Z,7.13
2022-09-17T01:24:05.731Z,3.88
2022-09-17T01:26:54.819Z,2.47
2022-09-17T01:29:40.147Z,3.03
2022-09-17T01:32:16.743Z,5.25
2022-09-17T01:35:01.366Z,3.47
2022-09-17T01:37:42.279Z,5.45
2022-09-17T01:40:15.597Z,3.20
2022-09-17T01:42:51.164Z,4.57
2022-09-17T01:45:42.273Z,5.28
2022-09-17T01:48:19.675Z,3.88
2022-09-17T01:50:58.090Z,4.25
2022-09-17T01:53:31.570Z,3.55
2022-09-17T01:56:01.853Z,3.65
2022-09-17T01:58:36.850Z,3.70
2022-09-17T02:01:07.028Z,8.35
2022-09-17T02:03:40.575Z,4.25
2022-09-17T02:06:13.839Z,5.22
2022-09-17T02:08:52.099Z,4.32
2022-09-17T02:11:19.844Z,4.05
2022-09-17T02:13:46.654Z,4.25
2022-09-17T02:16:20.930Z,5.20
2022-09-17T02:18:53.975Z,6.18
2022-09-17T02:21:29.575Z,5.70
2022-09-17T02:24:29.279Z,5.15
2022-09-17T02:27:03.170Z,5.15
2022-09-17T02:29:34.805Z,4.10
2022-09-17T02:32:01.972Z,6.35
2022-09-17T02:34:29.504Z,3.67
2022-09-17T02:36:59.605Z,7.35
2022-09-17T02:39:28.334Z,4.68
2022-09-17T02:42:21.966Z,4.18
2022-09-17T02:44:57.807Z,5.30
2022-09-17T02:47:52.350Z,4.13
2022-09-17T02:50:24.843Z,3.70
2022-09-17T02:53:09.491Z,3.75
2022-09-17T02:55:36.452Z,6.18
2022-09-17T02:58:41.743Z,4.18
2022-09-17T03:01:18.397Z,9.88
2022-09-17T03:03:47.452Z,6.60
2022-09-17T03:06:14.887Z,6.80
2022-09-17T03:08:42.663Z,4.00
2022-09-17T03:11:12.896Z,6.03
2022-09-17T03:13:40.229Z,4.93
2022-09-17T03:16:07.817Z,5.03
2022-09-17T03:18:35.145Z,5.85
2022-09-17T03:21:02.355Z,10.48
2022-09-17T03:23:29.205Z,6.20
2022-09-17T03:25:56.248Z,9.20
2022-09-17T03:28:23.426Z,6.20
2022-09-17T03:30:50.316Z,5.10
2022-09-17T03:33:17.535Z,7.13
2022-09-17T03:35:45.403Z,7.50
2022-09-17T03:38:13.139Z,6.10
2022-09-17T03:40:40.731Z,7.40
2022-09-17T03:43:08.275Z,4.22
2022-09-17T03:45:35.498Z,4.78
2022-09-17T03:48:02.345Z,5.40
2022-09-17T03:50:29.472Z,6.53
2022-09-17T03:52:56.320Z,4.45
2022-09-17T03:55:23.287Z,5.75
2022-09-17T03:57:51.345Z,7.80
2022-09-17T04:00:18.294Z,8.32
2022-09-17T04:02:45.342Z,8.18
2022-09-17T04:05:12.571Z,4.68
2022-09-17T04:07:41.119Z,6.60
2022-09-17T04:10:08.658Z,6.65
2022-09-17T04:12:35.981Z,4.43
2022-09-17T04:15:03.427Z,4.88
2022-09-17T04:17:30.288Z,6.25
2022-09-17T04:19:58.214Z,4.63
2022-09-17T04:22:26.064Z,3.97
2022-09-17T04:24:52.929Z,5.65
2022-09-17T04:27:20.062Z,5.72
2022-09-17T04:29:46.851Z,6.90
2022-09-17T04:32:13.860Z,4.97
2022-09-17T04:34:40.833Z,4.45
2022-09-17T04:37:07.886Z,5.35
2022-09-17T04:39:34.755Z,6.15
2022-09-17T04:42:02.109Z,11.32
2022-09-17T04:44:28.988Z,5.50
2022-09-17T04:46:56.005Z,4.68
2022-09-17T04:49:23.389Z,5.60
2022-09-17T04:51:50.239Z,6.55
2022-09-17T04:54:17.434Z,7.10
2022-09-17T04:56:44.510Z,5.10
2022-09-17T04:59:11.284Z,13.68
2022-09-17T05:01:38.146Z,6.65
2022-09-17T05:04:05.222Z,5.38
2022-09-17T05:06:32.175Z,6.25
2022-09-17T05:08:59.174Z,4.80
2022-09-17T05:11:26.462Z,6.20
2022-09-17T05:13:53.447Z,7.28
2022-09-17T05:16:20.557Z,6.72
2022-09-17T05:18:49.565Z,7.03
2022-09-17T05:21:16.479Z,5.95
2022-09-17T05:23:43.250Z,6.88
2022-09-17T05:26:10.602Z,4.60
2022-09-17T05:28:37.594Z,6.03
2022-09-17T05:31:04.497Z,5.38
2022-09-17T05:33:32.090Z,6.05
2022-09-17T05:35:59.946Z,5.53
2022-09-17T05:38:26.858Z,7.10
2022-09-17T05:40:54.010Z,5.88
2022-09-17T05:43:21.133Z,6.95
2022-09-17T05:45:48.255Z,4.20
2022-09-17T05:48:15.671Z,5.05
2022-09-17T05:50:42.887Z,7.32
2022-09-17T05:53:13.925Z,7.70
2022-09-17T05:55:42.342Z,4.05
2022-09-17T05:58:14.380Z,5.15
2022-09-17T06:00:41.862Z,5.18
2022-09-17T06:03:11.063Z,5.70
2022-09-17T06:05:38.129Z,4.38
2022-09-17T06:08:05.797Z,9.02
2022-09-17T06:10:36.586Z,3.30
2022-09-17T06:13:03.539Z,3.55
2022-09-17T06:15:30.917Z,8.70
2022-09-17T06:17:58.028Z,3.03
2022-09-17T06:20:24.981Z,4.18
2022-09-17T06:22:57.510Z,5.22
2022-09-17T06:25:26.625Z,3.08
2022-09-17T06:27:53.616Z,4.88
2022-09-17T06:30:20.452Z,5.28
2022-09-17T06:32:47.489Z,6.03
2022-09-17T06:35:14.426Z,4.45
2022-09-17T06:37:41.344Z,5.10
2022-09-17T06:40:09.106Z,5.40
2022-09-17T06:42:36.065Z,4.25
2022-09-17T06:45:08.122Z,6.40
2022-09-17T06:47:37.385Z,3.83
2022-09-17T06:50:04.422Z,2.80
2022-09-17T06:52:31.180Z,3.63
2022-09-17T06:54:58.187Z,6.03
2022-09-17T06:57:24.954Z,8.85
2022-09-17T06:59:52.069Z,6.20
2022-09-17T07:02:19.187Z,4.55
2022-09-17T07:04:46.078Z,4.68
2022-09-17T07:07:12.929Z,5.75
2022-09-17T07:09:39.985Z,4.45
2022-09-17T07:12:08.223Z,3.15
2022-09-17T07:14:35.307Z,3.75
2022-09-17T07:17:03.482Z,6.45
2022-09-17T07:19:30.616Z,3.90
2022-09-17T07:21:57.450Z,6.30
2022-09-17T07:24:24.513Z,3.38
2022-09-17T07:26:51.774Z,4.07
2022-09-17T07:29:18.834Z,6.60
2022-09-17T07:31:46.151Z,2.47
2022-09-17T07:34:13.147Z,8.60
2022-09-17T07:36:39.925Z,4.55
2022-09-17T07:39:07.128Z,3.97
2022-09-17T07:41:34.780Z,8.45
2022-09-17T07:44:02.631Z,6.57
2022-09-17T07:46:30.228Z,4.65
2022-09-17T07:48:57.422Z,9.80
2022-09-17T07:51:27.830Z,5.03
2022-09-17T07:53:56.530Z,2.65
2022-09-17T07:56:24.456Z,7.43
2022-09-17T07:58:51.866Z,5.63
2022-09-17T08:01:21.231Z,7.97
2022-09-17T08:03:50.604Z,4.53
2022-09-17T08:06:28.499Z,5.78
2022-09-17T08:08:57.757Z,5.53
2022-09-17T08:11:51.816Z,6.05
2022-09-17T08:14:15.710Z,6.85
2022-09-17T08:16:43.144Z,8.27
2022-09-17T08:19:12.597Z,7.65
2022-09-17T08:21:39.699Z,3.45
2022-09-17T08:24:06.778Z,8.65
2022-09-17T08:26:33.676Z,4.97
2022-09-17T08:29:00.742Z,2.30
2022-09-17T08:31:30.264Z,3.97
2022-09-17T08:33:57.239Z,6.68
2022-09-17T08:36:26.179Z,3.78
2022-09-17T08:38:55.095Z,4.32
2022-09-17T08:41:40.140Z,3.63
2022-09-17T08:44:20.208Z,3.30
2022-09-17T08:47:10.030Z,8.55
2022-09-17T08:49:47.779Z,4.47
2022-09-17T08:52:30.126Z,3.10
2022-09-17T08:55:11.262Z,5.38
2022-09-17T08:58:02.293Z,2.03
2022-09-17T09:00:39.044Z,3.55
2022-09-17T09:03:37.310Z,6.45
2022-09-17T09:06:10.510Z,3.13
2022-09-17T09:08:54.013Z,3.38
2022-09-17T09:11:27.627Z,2.03
2022-09-17T09:14:40.913Z,2.72
2022-09-17T09:17:10.936Z,3.10
2022-09-17T09:19:44.240Z,4.53
2022-09-17T09:22:14.099Z,2.28
2022-09-17T09:24:50.725Z,2.50
2022-09-17T09:27:21.737Z,2.92
2022-09-17T09:30:04.667Z,3.53
2022-09-17T09:32:46.654Z,2.05
2022-09-17T09:38:06.511Z,1.35
2022-09-17T09:40:37.962Z,2.75
2022-09-17T09:43:22.642Z,2.72
2022-09-17T09:45:58.526Z,3.25
2022-09-17T09:48:45.314Z,2.78
2022-09-17T09:51:28.943Z,4.28
2022-09-17T09:54:31.254Z,2.22
2022-09-17T09:57:04.069Z,3.95
2022-09-17T09:59:31.133Z,2.40
2022-09-17T10:01:58.026Z,3.55
2022-09-17T10:04:29.403Z,1.10
2022-09-17T10:09:41.545Z,3.00
2022-09-17T10:12:08.521Z,2.30
2022-09-17T10:14:37.845Z,3.17
2022-09-17T10:17:30.771Z,2.35
2022-09-17T10:20:12.085Z,4.60
2022-09-17T10:22:41.124Z,2.38
2022-09-17T10:25:32.213Z,2.42
2022-09-17T10:28:02.828Z,1.40
2022-09-17T10:30:31.046Z,2.28
2022-09-17T10:33:22.359Z,2.97
2022-09-17T10:36:15.791Z,1.77
2022-09-17T10:38:46.395Z,7.32
2022-09-17T10:41:21.709Z,5.17
2022-09-17T10:43:50.005Z,2.47
2022-09-17T10:46:27.752Z,1.90
2022-09-17T10:49:12.122Z,2.78
2022-09-17T10:51:39.507Z,2.35
2022-09-17T10:54:32.625Z,4.45
2022-09-17T10:57:01.490Z,3.22
2022-09-17T10:59:46.537Z,2.78
2022-09-17T11:02:29.982Z,2.70
2022-09-17T11:05:11.667Z,3.20
2022-09-17T11:10:37.633Z,5.05
2022-09-17T11:13:34.889Z,2.63
2022-09-17T11:16:14.974Z,5.70
2022-09-17T11:18:59.363Z,7.97
2022-09-17T11:21:35.930Z,6.93
2022-09-17T11:24:24.662Z,7.43
2022-09-17T11:27:28.676Z,4.03
2022-09-17T11:30:09.123Z,4.63
2022-09-17T11:33:00.361Z,4.57
2022-09-17T11:35:32.990Z,4.45
2022-09-17T11:38:25.042Z,9.82
2022-09-17T11:41:19.403Z,6.63
2022-09-17T11:43:53.489Z,9.57
2022-09-17T11:46:29.747Z,9.10
2022-09-17T11:49:05.270Z,7.18
2022-09-17T11:51:48.282Z,3.13
2022-09-17T11:54:40.601Z,5.75
2022-09-17T11:57:14.067Z,3.53
2022-09-17T11:59:51.518Z,2.03
2022-09-17T12:02:43.700Z,2.00
2022-09-17T12:05:25.113Z,2.85
2022-09-17T12:08:14.552Z,1.63
2022-09-17T12:10:48.139Z,2.53
2022-09-17T12:13:30.672Z,3.03
2022-09-17T12:16:10.881Z,2.85
2022-09-17T12:18:51.416Z,2.60
2022-09-17T12:21:27.014Z,4.38
2022-09-17T12:24:10.054Z,3.03
2022-09-17T12:26:57.258Z,3.47
2022-09-17T12:29:59.572Z,1.90
2022-09-17T12:32:41.834Z,2.47
2022-09-17T12:38:36.082Z,1.55
2022-09-17T12:41:24.786Z,1.85
2022-09-17T12:44:13.522Z,2.17
2022-09-17T12:46:59.263Z,3.47
2022-09-17T12:49:46.626Z,4.05
2022-09-17T12:52:27.443Z,2.17
2022-09-17T12:55:27.485Z,2.67
2022-09-17T12:58:00.631Z,4.22
2022-09-17T13:00:37.552Z,5.72
2022-09-17T13:03:08.252Z,2.80
2022-09-17T13:06:06.186Z,3.92
2022-09-17T13:09:21.727Z,3.28
2022-09-17T13:12:08.259Z,2.38
2022-09-17T13:14:52.036Z,3.50
2022-09-17T13:17:28.584Z,9.85
2022-09-17T13:20:17.127Z,15.48
2022-09-17T13:22:49.301Z,7.00
2022-09-17T13:25:19.248Z,3.97
2022-09-17T13:27:48.628Z,9.18
2022-09-17T13:30:20.822Z,4.20
2022-09-17T13:32:50.054Z,4.38
2022-09-17T13:35:17.106Z,3.35
2022-09-17T13:37:53.839Z,4.25
2022-09-17T13:40:28.512Z,2.83
2022-09-17T13:43:04.610Z,2.20
2022-09-17T13:45:34.044Z,2.53
2022-09-17T13:48:08.095Z,2.35
2022-09-17T13:50:38.045Z,1.92
2022-09-17T13:53:17.020Z,2.20
2022-09-17T13:55:50.562Z,4.18
2022-09-17T13:58:20.722Z,5.63
2022-09-17T14:01:11.881Z,3.15
2022-09-17T14:03:44.229Z,2.92
2022-09-17T14:06:11.576Z,5.63
2022-09-17T14:08:44.672Z,3.22
2022-09-17T14:11:27.882Z,3.67
2022-09-17T14:14:04.365Z,3.33
2022-09-17T14:16:34.286Z,3.17
2022-09-17T14:19:03.485Z,3.80
2022-09-17T14:21:34.900Z,2.65
2022-09-17T14:24:18.972Z,5.10
2022-09-17T14:26:55.540Z,5.55
2022-09-17T14:29:49.713Z,4.70
2022-09-17T14:32:20.989Z,3.90
2022-09-17T14:34:49.754Z,4.80
2022-09-17T14:37:21.839Z,7.45
2022-09-17T14:39:50.042Z,4.93
2022-09-17T14:42:22.672Z,4.72
2022-09-17T14:44:59.261Z,4.50
2022-09-17T14:47:27.061Z,4.53
2022-09-17T14:49:55.316Z,6.75
2022-09-17T14:52:28.405Z,3.42
2022-09-17T14:55:20.334Z,4.07
2022-09-17T14:57:52.292Z,3.30
2022-09-17T15:00:25.884Z,5.82
2022-09-17T15:02:56.282Z,4.60
2022-09-17T15:05:27.216Z,5.80
2022-09-17T15:08:15.471Z,6.03
2022-09-17T15:10:55.283Z,4.35
2022-09-17T15:13:35.866Z,7.18
2022-09-17T15:16:07.785Z,5.45
2022-09-17T15:18:47.385Z,5.15
2022-09-17T15:21:33.467Z,6.30
2022-09-17T15:24:10.916Z,5.18
2022-09-17T15:26:41.534Z,4.63
2022-09-17T15:29:12.751Z,3.80
2022-09-17T15:31:39.858Z,6.05
2022-09-17T15:34:09.589Z,3.70
2022-09-17T15:36:36.612Z,5.35
2022-09-17T15:39:31.010Z,5.10
2022-09-17T15:41:58.023Z,5.60
2022-09-17T15:44:31.211Z,5.30
2022-09-17T15:47:39.294Z,4.10
2022-09-17T15:50:49.447Z,5.22
2022-09-17T15:53:22.291Z,4.45
2022-09-17T15:56:16.490Z,5.10
2022-09-17T15:58:46.133Z,4.53
2022-09-17T16:01:16.347Z,5.45
2022-09-17T16:06:25.405Z,5.22
2022-09-17T16:09:03.802Z,6.25
2022-09-17T16:11:31.950Z,5.45
2022-09-17T16:14:01.113Z,6.15
2022-09-17T16:16:37.805Z,6.30
2022-09-17T16:19:06.735Z,5.95
2022-09-17T16:21:34.206Z,6.63
2022-09-17T16:24:01.163Z,6.57
2022-09-17T16:26:32.267Z,6.13
2022-09-17T16:29:04.987Z,5.28
2022-09-17T16:31:51.766Z,6.38
2022-09-17T16:34:19.020Z,5.93
2022-09-17T16:36:45.842Z,7.53
2022-09-17T16:39:12.696Z,8.40
2022-09-17T16:41:39.750Z,8.70
2022-09-17T16:44:06.702Z,8.52
2022-09-17T16:46:33.597Z,7.97
2022-09-17T16:49:00.816Z,7.45
2022-09-17T16:51:27.782Z,6.22
2022-09-17T16:53:57.680Z,7.15
2022-09-17T16:56:24.748Z,6.75
2022-09-17T16:58:55.873Z,7.82
2022-09-17T17:01:23.158Z,6.88
2022-09-17T17:03:52.159Z,7.70
2022-09-17T17:06:20.451Z,8.70
2022-09-17T17:08:48.526Z,8.18
2022-09-17T17:11:16.092Z,8.40
2022-09-17T17:13:43.443Z,7.90
2022-09-17T17:16:13.000Z,8.45
2022-09-17T17:18:44.140Z,9.55
2022-09-17T17:21:13.837Z,8.55
2022-09-17T17:23:43.559Z,9.63
2022-09-17T17:26:10.635Z,13.10
2022-09-17T17:28:37.893Z,9.05
2022-09-17T17:31:05.719Z,10.90
2022-09-17T17:33:33.013Z,10.88
2022-09-17T17:36:06.687Z,9.98
2022-09-17T17:38:35.321Z,14.90
2022-09-17T17:41:04.796Z,13.50
2022-09-17T17:43:31.658Z,16.33
2022-09-17T17:45:58.768Z,14.23
2022-09-17T17:48:25.781Z,10.52
2022-09-17T17:50:56.578Z,11.25
2022-09-17T17:53:24.683Z,14.63
2022-09-17T17:55:57.704Z,13.40
2022-09-17T17:58:25.185Z,14.07
2022-09-17T18:00:52.509Z,14.52
2022-09-17T18:03:20.193Z,15.40
2022-09-17T18:05:47.016Z,13.77
2022-09-17T18:08:14.182Z,15.07
2022-09-17T18:10:41.166Z,12.50
2022-09-17T18:13:08.080Z,10.45
2022-09-17T18:15:35.111Z,11.23
2022-09-17T18:18:01.979Z,10.73
2022-09-17T18:20:29.198Z,12.35
2022-09-17T18:22:56.393Z,14.57
2022-09-17T18:25:23.491Z,13.68
2022-09-17T18:27:50.442Z,12.95
2022-09-17T18:30:17.689Z,13.60
2022-09-17T18:32:48.422Z,16.25
2022-09-17T18:35:19.974Z,18.83
2022-09-17T18:37:47.153Z,14.48
2022-09-17T18:40:14.182Z,17.30
2022-09-17T18:42:41.477Z,20.98
2022-09-17T18:45:09.125Z,16.88
2022-09-17T18:47:35.957Z,18.05
2022-09-17T18:50:03.139Z,12.70
2022-09-17T18:52:30.444Z,15.55
2022-09-17T18:54:57.199Z,15.70
2022-09-17T18:57:24.615Z,15.32
2022-09-17T18:59:52.079Z,12.30
2022-09-17T19:02:18.950Z,14.88
2022-09-17T19:04:49.083Z,18.45
2022-09-17T19:07:16.277Z,18.85
2022-09-17T19:09:43.391Z,16.20
2022-09-17T19:12:10.384Z,14.48
2022-09-17T19:14:37.481Z,20.30
2022-09-17T19:17:04.447Z,15.98
2022-09-17T19:19:31.344Z,17.02
2022-09-17T19:21:58.386Z,16.75
2022-09-17T19:24:25.459Z,16.20
2022-09-17T19:26:52.614Z,22.95
2022-09-17T19:29:19.757Z,25.20
2022-09-17T19:31:46.971Z,19.73
2022-09-17T19:34:14.000Z,21.98
2022-09-17T19:36:41.149Z,27.55
2022-09-17T19:39:08.111Z,21.83
2022-09-17T19:41:53.506Z,28.83
2022-09-17T19:44:20.733Z,24.70
2022-09-17T19:46:50.438Z,17.25
2022-09-17T19:49:17.888Z,18.60
2022-09-17T19:51:45.551Z,21.90
2022-09-17T19:54:12.486Z,20.10
2022-09-17T19:56:39.892Z,18.50
2022-09-17T19:59:07.308Z,21.13
2022-09-17T20:01:35.179Z,18.45
2022-09-17T20:04:02.425Z,23.13
2022-09-17T20:06:33.718Z,20.88
2022-09-17T20:09:19.821Z,18.92
2022-09-17T20:11:46.847Z,21.48
2022-09-17T20:14:13.769Z,21.65
2022-09-17T20:16:40.802Z,20.55
2022-09-17T20:19:14.986Z,22.67
2022-09-17T20:21:42.477Z,21.75
2022-09-17T20:24:09.899Z,17.60
2022-09-17T20:26:37.209Z,20.83
2022-09-17T20:29:05.045Z,21.05
2022-09-17T20:31:33.480Z,20.17
2022-09-17T20:34:03.127Z,19.45
2022-09-17T20:36:33.587Z,22.48
2022-09-17T20:39:21.865Z,22.50
2022-09-17T20:41:47.690Z,20.45
2022-09-17T20:44:14.721Z,23.58
2022-09-17T20:46:41.759Z,25.45
2022-09-17T20:49:08.881Z,25.90
2022-09-17T20:51:35.991Z,22.77
2022-09-17T20:54:03.964Z,22.65
2022-09-17T20:56:33.432Z,25.50
2022-09-17T20:59:17.856Z,23.30
2022-09-17T21:01:47.703Z,25.30
2022-09-17T21:04:20.058Z,23.27
2022-09-17T21:06:48.485Z,23.33
2022-09-17T21:09:16.109Z,21.73
2022-09-17T21:11:44.795Z,23.90
2022-09-17T21:14:12.428Z,23.42
2022-09-17T21:16:39.444Z,22.23
2022-09-17T21:19:07.976Z,22.27
2022-09-17T21:21:36.365Z,22.70
2022-09-17T21:24:05.577Z,24.80
2022-09-17T21:26:33.943Z,23.10
2022-09-17T21:29:02.090Z,19.20
2022-09-17T21:31:33.831Z,20.33
2022-09-17T21:36:31.338Z,21.48
2022-09-17T21:39:18.947Z,20.42
2022-09-17T21:41:48.183Z,19.73
2022-09-17T21:44:15.854Z,20.85
2022-09-17T21:46:43.311Z,22.80
2022-09-17T21:49:11.539Z,18.85
2022-09-17T21:51:41.286Z,17.55
2022-09-17T21:54:13.463Z,19.85
2022-09-17T21:56:40.601Z,22.20
2022-09-17T21:59:12.594Z,24.67
2022-09-17T22:01:43.576Z,17.77
2022-09-17T22:04:13.242Z,20.27
2022-09-17T22:06:42.110Z,26.30
2022-09-17T22:09:21.494Z,18.05
2022-09-17T22:11:48.797Z,17.60
2022-09-17T22:14:19.706Z,20.83
2022-09-17T22:16:50.519Z,16.85
2022-09-17T22:19:19.737Z,17.67
2022-09-17T22:21:51.133Z,13.57
2022-09-17T22:24:19.767Z,16.38
2022-09-17T22:26:54.090Z,15.50
2022-09-17T22:29:24.754Z,15.70
2022-09-17T22:31:51.748Z,13.65
2022-09-17T22:34:21.845Z,12.07
2022-09-17T22:36:49.396Z,13.27
2022-09-17T22:39:18.897Z,12.27
2022-09-17T22:41:46.275Z,11.57
2022-09-17T22:44:17.623Z,11.20
2022-09-17T22:46:46.860Z,11.23
2022-09-17T22:49:14.337Z,11.43
2022-09-17T22:51:42.196Z,9.63
2022-09-17T22:54:13.391Z,14.40
2022-09-17T22:56:40.903Z,10.32
2022-09-17T22:59:08.062Z,9.38
2022-09-17T23:01:36.500Z,11.95
2022-09-17T23:04:04.406Z,12.68
2022-09-17T23:06:34.169Z,11.18
2022-09-17T23:09:01.272Z,9.80
2022-09-17T23:11:31.087Z,13.55
2022-09-17T23:14:02.185Z,9.35
2022-09-17T23:16:37.707Z,9.25
2022-09-17T23:19:05.552Z,12.38
2022-09-17T23:21:33.200Z,9.75
2022-09-17T23:24:00.122Z,10.40
2022-09-17T23:26:27.751Z,11.75
2022-09-17T23:28:54.906Z,10.18
2022-09-17T23:31:23.183Z,7.95
2022-09-17T23:33:50.965Z,10.45
2022-09-17T23:36:27.014Z,8.15
2022-09-17T23:38:55.529Z,8.80
2022-09-17T23:41:25.567Z,7.18
2022-09-17T23:43:55.098Z,11.25
2022-09-17T23:46:23.363Z,7.88
2022-09-17T23:48:53.720Z,9.07
2022-09-17T23:51:22.162Z,7.35
2022-09-17T23:53:49.530Z,7.63
2022-09-17T23:56:19.501Z,7.10
2022-09-17T23:58:46.336Z,7.97
